sensor_id;sensor_type;location;lat;lon;timestamp;P1;durP1;ratioP1;P2;durP2;ratioP2
32505;SDS011;18955;51.224;8.482;2023-04-25T00:00:31;12.60;;;5.68;;
32505;SDS011;18955;51.224;8.482;2023-04-25T00:02:58;13.45;;;4.95;;
32505;SDS011;18955;51.224;8.482;2023-04-25T00:05:25;15.07;;;5.95;;
32505;SDS011;18955;51.224;8.482;2023-04-25T00:07:52;10.98;;;5.30;;
32505;SDS011;18955;51.224;8.482;2023-04-25T00:10:19;15.00;;;4.40;;
32505;SDS011;18955;51.224;8.482;2023-04-25T00:12:46;14.48;;;5.78;;
32505;SDS011;18955;51.224;8.482;2023-04-25T00:15:12;11.70;;;5.88;;
32505;SDS011;18955;51.224;8.482;2023-04-25T00:17:38;10.23;;;4.05;;
32505;SDS011;18955;51.224;8.482;2023-04-25T00:20:04;11.45;;;4.38;;
32505;SDS011;18955;51.224;8.482;2023-04-25T00:22:33;15.70;;;5.85;;
32505;SDS011;18955;51.224;8.482;2023-04-25T00:27:26;17.08;;;5.68;;
32505;SDS011;18955;51.224;8.482;2023-04-25T00:29:52;13.07;;;4.90;;
32505;SDS011;18955;51.224;8.482;2023-04-25T00:32:18;14.32;;;5.40;;
32505;SDS011;18955;51.224;8.482;2023-04-25T00:34:45;13.63;;;5.38;;
32505;SDS011;18955;51.224;8.482;2023-04-25T00:37:11;10.88;;;4.45;;
32505;SDS011;18955;51.224;8.482;2023-04-25T00:39:38;14.45;;;4.93;;
32505;SDS011;18955;51.224;8.482;2023-04-25T00:42:04;13.35;;;5.05;;
32505;SDS011;18955;51.224;8.482;2023-04-25T00:46:57;18.55;;;5.45;;
32505;SDS011;18955;51.224;8.482;2023-04-25T00:49:25;11.45;;;4.55;;
32505;SDS011;18955;51.224;8.482;2023-04-25T00:51:51;10.70;;;4.70;;
32505;SDS011;18955;51.224;8.482;2023-04-25T00:54:17;12.95;;;4.72;;
32505;SDS011;18955;51.224;8.482;2023-04-25T00:56:44;12.95;;;5.15;;
32505;SDS011;18955;51.224;8.482;2023-04-25T00:59:11;11.63;;;4.22;;
32505;SDS011;18955;51.224;8.482;2023-04-25T01:01:38;13.38;;;4.40;;
32505;SDS011;18955;51.224;8.482;2023-04-25T01:04:05;11.73;;;4.60;;
32505;SDS011;18955;51.224;8.482;2023-04-25T01:06:32;6.28;;;3.10;;
32505;SDS011;18955;51.224;8.482;2023-04-25T01:08:58;10.30;;;3.50;;
32505;SDS011;18955;51.224;8.482;2023-04-25T01:11:25;13.75;;;4.80;;
32505;SDS011;18955;51.224;8.482;2023-04-25T01:13:51;16.08;;;5.22;;
32505;SDS011;18955;51.224;8.482;2023-04-25T01:16:18;13.73;;;3.47;;
32505;SDS011;18955;51.224;8.482;2023-04-25T01:18:44;14.82;;;5.78;;
32505;SDS011;18955;51.224;8.482;2023-04-25T01:21:11;10.10;;;4.03;;
32505;SDS011;18955;51.224;8.482;2023-04-25T01:23:39;11.25;;;4.80;;
32505;SDS011;18955;51.224;8.482;2023-04-25T01:26:07;13.68;;;4.68;;
32505;SDS011;18955;51.224;8.482;2023-04-25T01:28:35;12.65;;;4.68;;
32505;SDS011;18955;51.224;8.482;2023-04-25T01:31:02;11.18;;;4.38;;
32505;SDS011;18955;51.224;8.482;2023-04-25T01:33:29;14.77;;;4.72;;
32505;SDS011;18955;51.224;8.482;2023-04-25T01:35:56;9.38;;;4.18;;
32505;SDS011;18955;51.224;8.482;2023-04-25T01:38:22;8.70;;;2.67;;
32505;SDS011;18955;51.224;8.482;2023-04-25T01:40:49;10.02;;;4.68;;
32505;SDS011;18955;51.224;8.482;2023-04-25T01:43:18;18.42;;;4.85;;
32505;SDS011;18955;51.224;8.482;2023-04-25T01:45:45;14.57;;;4.55;;
32505;SDS011;18955;51.224;8.482;2023-04-25T01:48:12;17.23;;;5.15;;
32505;SDS011;18955;51.224;8.482;2023-04-25T01:50:40;13.43;;;4.70;;
32505;SDS011;18955;51.224;8.482;2023-04-25T01:53:06;14.93;;;4.68;;
32505;SDS011;18955;51.224;8.482;2023-04-25T01:55:34;13.98;;;5.03;;
32505;SDS011;18955;51.224;8.482;2023-04-25T01:58:06;16.60;;;4.72;;
32505;SDS011;18955;51.224;8.482;2023-04-25T02:00:58;12.27;;;4.78;;
32505;SDS011;18955;51.224;8.482;2023-04-25T02:03:30;11.23;;;4.72;;
32505;SDS011;18955;51.224;8.482;2023-04-25T02:05:58;12.82;;;4.40;;
32505;SDS011;18955;51.224;8.482;2023-04-25T02:10:54;9.98;;;4.15;;
32505;SDS011;18955;51.224;8.482;2023-04-25T02:13:20;10.35;;;4.80;;
32505;SDS011;18955;51.224;8.482;2023-04-25T02:18:24;8.23;;;4.60;;
32505;SDS011;18955;51.224;8.482;2023-04-25T02:20:51;12.45;;;6.68;;
32505;SDS011;18955;51.224;8.482;2023-04-25T02:23:19;13.10;;;6.25;;
32505;SDS011;18955;51.224;8.482;2023-04-25T02:25:46;10.35;;;4.80;;
32505;SDS011;18955;51.224;8.482;2023-04-25T02:28:13;8.73;;;4.97;;
32505;SDS011;18955;51.224;8.482;2023-04-25T02:30:39;9.02;;;4.18;;
32505;SDS011;18955;51.224;8.482;2023-04-25T02:33:05;6.22;;;3.55;;
32505;SDS011;18955;51.224;8.482;2023-04-25T02:35:31;7.95;;;3.70;;
32505;SDS011;18955;51.224;8.482;2023-04-25T02:37:58;7.90;;;3.22;;
32505;SDS011;18955;51.224;8.482;2023-04-25T02:40:24;8.20;;;4.32;;
32505;SDS011;18955;51.224;8.482;2023-04-25T02:42:53;9.50;;;5.10;;
32505;SDS011;18955;51.224;8.482;2023-04-25T02:45:20;9.68;;;5.25;;
32505;SDS011;18955;51.224;8.482;2023-04-25T02:47:47;8.63;;;5.03;;
32505;SDS011;18955;51.224;8.482;2023-04-25T02:50:13;8.10;;;4.82;;
32505;SDS011;18955;51.224;8.482;2023-04-25T02:52:40;10.27;;;4.80;;
32505;SDS011;18955;51.224;8.482;2023-04-25T02:55:15;11.35;;;4.20;;
32505;SDS011;18955;51.224;8.482;2023-04-25T02:57:42;9.55;;;5.43;;
32505;SDS011;18955;51.224;8.482;2023-04-25T03:00:12;10.43;;;5.40;;
32505;SDS011;18955;51.224;8.482;2023-04-25T03:02:40;11.88;;;5.20;;
32505;SDS011;18955;51.224;8.482;2023-04-25T03:05:06;7.28;;;3.80;;
32505;SDS011;18955;51.224;8.482;2023-04-25T03:07:34;7.57;;;5.05;;
32505;SDS011;18955;51.224;8.482;2023-04-25T03:10:00;8.48;;;4.40;;
32505;SDS011;18955;51.224;8.482;2023-04-25T03:12:28;8.80;;;5.10;;
32505;SDS011;18955;51.224;8.482;2023-04-25T03:14:54;7.22;;;4.05;;
32505;SDS011;18955;51.224;8.482;2023-04-25T03:17:20;8.50;;;4.07;;
32505;SDS011;18955;51.224;8.482;2023-04-25T03:19:48;8.32;;;5.05;;
32505;SDS011;18955;51.224;8.482;2023-04-25T03:22:15;8.43;;;5.00;;
32505;SDS011;18955;51.224;8.482;2023-04-25T03:24:41;10.98;;;5.15;;
32505;SDS011;18955;51.224;8.482;2023-04-25T03:27:07;6.45;;;5.05;;
32505;SDS011;18955;51.224;8.482;2023-04-25T03:29:34;9.02;;;4.88;;
32505;SDS011;18955;51.224;8.482;2023-04-25T03:32:03;8.82;;;4.85;;
32505;SDS011;18955;51.224;8.482;2023-04-25T03:34:30;8.63;;;5.00;;
32505;SDS011;18955;51.224;8.482;2023-04-25T03:36:56;8.40;;;5.25;;
32505;SDS011;18955;51.224;8.482;2023-04-25T03:39:22;5.97;;;2.97;;
32505;SDS011;18955;51.224;8.482;2023-04-25T03:41:51;7.88;;;4.82;;
32505;SDS011;18955;51.224;8.482;2023-04-25T03:44:18;10.40;;;4.82;;
32505;SDS011;18955;51.224;8.482;2023-04-25T03:46:45;6.80;;;5.00;;
32505;SDS011;18955;51.224;8.482;2023-04-25T03:49:11;8.30;;;5.30;;
32505;SDS011;18955;51.224;8.482;2023-04-25T03:51:55;8.63;;;5.07;;
32505;SDS011;18955;51.224;8.482;2023-04-25T03:54:22;8.15;;;4.60;;
32505;SDS011;18955;51.224;8.482;2023-04-25T03:56:56;9.55;;;4.13;;
32505;SDS011;18955;51.224;8.482;2023-04-25T03:59:26;8.18;;;4.63;;
32505;SDS011;18955;51.224;8.482;2023-04-25T04:01:52;5.63;;;3.95;;
32505;SDS011;18955;51.224;8.482;2023-04-25T04:04:19;5.72;;;3.70;;
32505;SDS011;18955;51.224;8.482;2023-04-25T04:09:21;4.95;;;3.30;;
32505;SDS011;18955;51.224;8.482;2023-04-25T04:11:47;6.57;;;3.55;;
32505;SDS011;18955;51.224;8.482;2023-04-25T04:14:14;4.13;;;2.88;;
32505;SDS011;18955;51.224;8.482;2023-04-25T04:16:44;3.70;;;3.08;;
32505;SDS011;18955;51.224;8.482;2023-04-25T04:19:10;5.07;;;2.72;;
32505;SDS011;18955;51.224;8.482;2023-04-25T04:21:39;4.75;;;2.80;;
32505;SDS011;18955;51.224;8.482;2023-04-25T04:24:07;3.22;;;2.45;;
32505;SDS011;18955;51.224;8.482;2023-04-25T04:26:46;4.07;;;2.13;;
32505;SDS011;18955;51.224;8.482;2023-04-25T04:29:35;5.40;;;3.10;;
32505;SDS011;18955;51.224;8.482;2023-04-25T04:32:15;4.97;;;2.50;;
32505;SDS011;18955;51.224;8.482;2023-04-25T04:34:43;4.63;;;2.60;;
32505;SDS011;18955;51.224;8.482;2023-04-25T04:37:13;5.00;;;2.67;;
32505;SDS011;18955;51.224;8.482;2023-04-25T04:39:40;4.80;;;2.83;;
32505;SDS011;18955;51.224;8.482;2023-04-25T04:42:19;6.30;;;3.05;;
32505;SDS011;18955;51.224;8.482;2023-04-25T04:45:00;4.75;;;3.22;;
32505;SDS011;18955;51.224;8.482;2023-04-25T04:47:54;5.70;;;3.00;;
32505;SDS011;18955;51.224;8.482;2023-04-25T04:50:34;4.55;;;3.25;;
32505;SDS011;18955;51.224;8.482;2023-04-25T04:53:21;2.58;;;2.13;;
32505;SDS011;18955;51.224;8.482;2023-04-25T04:56:06;5.30;;;3.10;;
32505;SDS011;18955;51.224;8.482;2023-04-25T04:58:53;3.75;;;2.20;;
32505;SDS011;18955;51.224;8.482;2023-04-25T05:01:42;3.22;;;2.53;;
32505;SDS011;18955;51.224;8.482;2023-04-25T05:04:42;4.90;;;2.47;;
32505;SDS011;18955;51.224;8.482;2023-04-25T05:07:24;2.63;;;2.42;;
32505;SDS011;18955;51.224;8.482;2023-04-25T05:10:22;2.47;;;2.10;;
32505;SDS011;18955;51.224;8.482;2023-04-25T05:12:54;2.45;;;1.90;;
32505;SDS011;18955;51.224;8.482;2023-04-25T05:15:39;2.50;;;2.30;;
32505;SDS011;18955;51.224;8.482;2023-04-25T05:18:17;2.65;;;2.00;;
32505;SDS011;18955;51.224;8.482;2023-04-25T05:21:06;3.58;;;2.30;;
32505;SDS011;18955;51.224;8.482;2023-04-25T05:23:47;2.92;;;2.00;;
32505;SDS011;18955;51.224;8.482;2023-04-25T05:26:52;4.93;;;2.20;;
32505;SDS011;18955;51.224;8.482;2023-04-25T05:29:28;3.85;;;2.53;;
32505;SDS011;18955;51.224;8.482;2023-04-25T05:32:05;3.47;;;2.00;;
32505;SDS011;18955;51.224;8.482;2023-04-25T05:34:33;3.47;;;2.38;;
32505;SDS011;18955;51.224;8.482;2023-04-25T05:37:04;4.53;;;2.35;;
32505;SDS011;18955;51.224;8.482;2023-04-25T05:39:32;6.07;;;2.25;;
32505;SDS011;18955;51.224;8.482;2023-04-25T05:42:17;9.75;;;4.78;;
32505;SDS011;18955;51.224;8.482;2023-04-25T05:45:12;14.30;;;4.30;;
32505;SDS011;18955;51.224;8.482;2023-04-25T05:47:57;11.93;;;3.35;;
32505;SDS011;18955;51.224;8.482;2023-04-25T05:50:37;9.50;;;3.67;;
32505;SDS011;18955;51.224;8.482;2023-04-25T05:53:15;13.80;;;3.47;;
32505;SDS011;18955;51.224;8.482;2023-04-25T05:55:43;10.70;;;3.80;;
32505;SDS011;18955;51.224;8.482;2023-04-25T05:58:29;12.63;;;3.90;;
32505;SDS011;18955;51.224;8.482;2023-04-25T06:00:57;16.25;;;4.78;;
32505;SDS011;18955;51.224;8.482;2023-04-25T06:03:23;17.35;;;6.35;;
32505;SDS011;18955;51.224;8.482;2023-04-25T06:05:50;14.80;;;5.72;;
32505;SDS011;18955;51.224;8.482;2023-04-25T06:08:16;10.48;;;3.33;;
32505;SDS011;18955;51.224;8.482;2023-04-25T06:10:42;14.45;;;4.10;;
32505;SDS011;18955;51.224;8.482;2023-04-25T06:13:09;17.30;;;4.55;;
32505;SDS011;18955;51.224;8.482;2023-04-25T06:15:36;17.27;;;5.18;;
32505;SDS011;18955;51.224;8.482;2023-04-25T06:18:02;17.98;;;4.85;;
32505;SDS011;18955;51.224;8.482;2023-04-25T06:20:28;19.52;;;4.22;;
32505;SDS011;18955;51.224;8.482;2023-04-25T06:22:57;15.10;;;5.05;;
32505;SDS011;18955;51.224;8.482;2023-04-25T06:25:33;16.08;;;4.93;;
32505;SDS011;18955;51.224;8.482;2023-04-25T06:27:59;14.63;;;4.70;;
32505;SDS011;18955;51.224;8.482;2023-04-25T06:30:25;10.40;;;3.75;;
32505;SDS011;18955;51.224;8.482;2023-04-25T06:32:56;16.60;;;3.90;;
32505;SDS011;18955;51.224;8.482;2023-04-25T06:35:23;21.52;;;5.13;;
32505;SDS011;18955;51.224;8.482;2023-04-25T06:37:49;18.63;;;4.18;;
32505;SDS011;18955;51.224;8.482;2023-04-25T06:40:19;25.50;;;4.72;;
32505;SDS011;18955;51.224;8.482;2023-04-25T06:42:45;18.23;;;4.70;;
32505;SDS011;18955;51.224;8.482;2023-04-25T06:45:37;26.33;;;4.65;;
32505;SDS011;18955;51.224;8.482;2023-04-25T06:48:04;9.52;;;3.25;;
32505;SDS011;18955;51.224;8.482;2023-04-25T06:50:30;21.92;;;4.78;;
32505;SDS011;18955;51.224;8.482;2023-04-25T06:52:57;20.63;;;4.82;;
32505;SDS011;18955;51.224;8.482;2023-04-25T06:55:23;21.55;;;4.45;;
32505;SDS011;18955;51.224;8.482;2023-04-25T06:58:03;18.60;;;5.18;;
32505;SDS011;18955;51.224;8.482;2023-04-25T07:00:51;23.65;;;4.82;;
32505;SDS011;18955;51.224;8.482;2023-04-25T07:03:20;23.38;;;6.00;;
32505;SDS011;18955;51.224;8.482;2023-04-25T07:08:13;18.60;;;5.10;;
32505;SDS011;18955;51.224;8.482;2023-04-25T07:10:39;20.58;;;4.93;;
32505;SDS011;18955;51.224;8.482;2023-04-25T07:15:32;19.30;;;6.38;;
32505;SDS011;18955;51.224;8.482;2023-04-25T07:17:59;28.17;;;6.35;;
32505;SDS011;18955;51.224;8.482;2023-04-25T07:20:26;21.88;;;6.47;;
32505;SDS011;18955;51.224;8.482;2023-04-25T07:22:53;16.55;;;5.55;;
32505;SDS011;18955;51.224;8.482;2023-04-25T07:25:19;20.83;;;4.18;;
32505;SDS011;18955;51.224;8.482;2023-04-25T07:30:16;27.35;;;6.00;;
32505;SDS011;18955;51.224;8.482;2023-04-25T07:32:42;24.55;;;5.20;;
32505;SDS011;18955;51.224;8.482;2023-04-25T07:35:08;21.33;;;5.20;;
32505;SDS011;18955;51.224;8.482;2023-04-25T07:37:35;24.30;;;5.07;;
32505;SDS011;18955;51.224;8.482;2023-04-25T07:40:10;20.15;;;4.88;;
32505;SDS011;18955;51.224;8.482;2023-04-25T07:42:42;22.63;;;5.25;;
32505;SDS011;18955;51.224;8.482;2023-04-25T07:45:09;17.58;;;4.55;;
32505;SDS011;18955;51.224;8.482;2023-04-25T07:47:36;21.70;;;5.10;;
32505;SDS011;18955;51.224;8.482;2023-04-25T07:50:04;17.80;;;5.28;;
32505;SDS011;18955;51.224;8.482;2023-04-25T07:52:31;24.85;;;6.78;;
32505;SDS011;18955;51.224;8.482;2023-04-25T07:55:08;26.30;;;6.03;;
32505;SDS011;18955;51.224;8.482;2023-04-25T07:57:50;19.05;;;6.07;;
32505;SDS011;18955;51.224;8.482;2023-04-25T08:00:17;21.02;;;5.60;;
32505;SDS011;18955;51.224;8.482;2023-04-25T08:02:51;21.70;;;5.82;;
32505;SDS011;18955;51.224;8.482;2023-04-25T08:05:18;13.50;;;5.72;;
32505;SDS011;18955;51.224;8.482;2023-04-25T08:07:50;21.27;;;6.13;;
32505;SDS011;18955;51.224;8.482;2023-04-25T08:10:16;21.98;;;5.57;;
32505;SDS011;18955;51.224;8.482;2023-04-25T08:12:43;23.45;;;6.40;;
32505;SDS011;18955;51.224;8.482;2023-04-25T08:15:09;17.60;;;5.85;;
32505;SDS011;18955;51.224;8.482;2023-04-25T08:17:39;19.20;;;6.10;;
32505;SDS011;18955;51.224;8.482;2023-04-25T08:20:06;15.45;;;5.80;;
32505;SDS011;18955;51.224;8.482;2023-04-25T08:22:33;15.32;;;6.00;;
32505;SDS011;18955;51.224;8.482;2023-04-25T08:25:20;13.40;;;4.85;;
32505;SDS011;18955;51.224;8.482;2023-04-25T08:27:47;22.15;;;6.32;;
32505;SDS011;18955;51.224;8.482;2023-04-25T08:30:15;20.02;;;4.85;;
32505;SDS011;18955;51.224;8.482;2023-04-25T08:32:42;14.57;;;5.47;;
32505;SDS011;18955;51.224;8.482;2023-04-25T08:35:34;13.60;;;5.25;;
32505;SDS011;18955;51.224;8.482;2023-04-25T08:38:03;17.25;;;5.18;;
32505;SDS011;18955;51.224;8.482;2023-04-25T08:40:30;16.98;;;5.38;;
32505;SDS011;18955;51.224;8.482;2023-04-25T08:43:06;16.85;;;4.93;;
32505;SDS011;18955;51.224;8.482;2023-04-25T08:45:41;15.20;;;5.05;;
32505;SDS011;18955;51.224;8.482;2023-04-25T08:48:15;23.17;;;5.32;;
32505;SDS011;18955;51.224;8.482;2023-04-25T08:51:01;11.20;;;4.60;;
32505;SDS011;18955;51.224;8.482;2023-04-25T08:53:30;14.73;;;4.53;;
32505;SDS011;18955;51.224;8.482;2023-04-25T08:56:00;16.88;;;5.13;;
32505;SDS011;18955;51.224;8.482;2023-04-25T08:58:27;15.90;;;4.85;;
32505;SDS011;18955;51.224;8.482;2023-04-25T09:00:54;11.98;;;4.25;;
32505;SDS011;18955;51.224;8.482;2023-04-25T09:03:24;20.17;;;4.25;;
32505;SDS011;18955;51.224;8.482;2023-04-25T09:05:50;14.23;;;4.20;;
32505;SDS011;18955;51.224;8.482;2023-04-25T09:08:18;14.30;;;4.43;;
32505;SDS011;18955;51.224;8.482;2023-04-25T09:10:44;14.98;;;5.13;;
32505;SDS011;18955;51.224;8.482;2023-04-25T09:13:12;12.70;;;4.07;;
32505;SDS011;18955;51.224;8.482;2023-04-25T09:16:03;11.88;;;3.53;;
32505;SDS011;18955;51.224;8.482;2023-04-25T09:19:05;15.48;;;4.43;;
32505;SDS011;18955;51.224;8.482;2023-04-25T09:21:32;22.48;;;4.28;;
32505;SDS011;18955;51.224;8.482;2023-04-25T09:24:00;13.13;;;4.07;;
32505;SDS011;18955;51.224;8.482;2023-04-25T09:26:27;15.80;;;4.07;;
32505;SDS011;18955;51.224;8.482;2023-04-25T09:29:06;9.00;;;3.08;;
32505;SDS011;18955;51.224;8.482;2023-04-25T09:31:34;11.95;;;3.72;;
32505;SDS011;18955;51.224;8.482;2023-04-25T09:34:02;20.70;;;4.25;;
32505;SDS011;18955;51.224;8.482;2023-04-25T09:36:37;12.70;;;3.63;;
32505;SDS011;18955;51.224;8.482;2023-04-25T09:39:34;18.80;;;4.20;;
32505;SDS011;18955;51.224;8.482;2023-04-25T09:42:09;17.45;;;3.47;;
32505;SDS011;18955;51.224;8.482;2023-04-25T09:44:36;18.02;;;3.85;;
32505;SDS011;18955;51.224;8.482;2023-04-25T09:47:02;10.60;;;3.00;;
32505;SDS011;18955;51.224;8.482;2023-04-25T09:49:30;11.10;;;3.15;;
32505;SDS011;18955;51.224;8.482;2023-04-25T09:52:01;15.43;;;3.53;;
32505;SDS011;18955;51.224;8.482;2023-04-25T09:54:35;17.17;;;4.03;;
32505;SDS011;18955;51.224;8.482;2023-04-25T09:57:13;15.77;;;2.80;;
32505;SDS011;18955;51.224;8.482;2023-04-25T09:59:43;11.68;;;2.95;;
32505;SDS011;18955;51.224;8.482;2023-04-25T10:02:11;14.93;;;3.45;;
32505;SDS011;18955;51.224;8.482;2023-04-25T10:04:39;14.60;;;2.75;;
32505;SDS011;18955;51.224;8.482;2023-04-25T10:07:25;10.75;;;2.92;;
32505;SDS011;18955;51.224;8.482;2023-04-25T10:09:58;9.80;;;2.60;;
32505;SDS011;18955;51.224;8.482;2023-04-25T10:12:27;11.82;;;3.20;;
32505;SDS011;18955;51.224;8.482;2023-04-25T10:14:54;14.95;;;2.50;;
32505;SDS011;18955;51.224;8.482;2023-04-25T10:17:20;12.80;;;2.42;;
32505;SDS011;18955;51.224;8.482;2023-04-25T10:19:47;14.27;;;2.92;;
32505;SDS011;18955;51.224;8.482;2023-04-25T10:22:18;14.40;;;2.95;;
32505;SDS011;18955;51.224;8.482;2023-04-25T10:24:51;13.30;;;2.47;;
32505;SDS011;18955;51.224;8.482;2023-04-25T10:29:44;12.80;;;2.83;;
32505;SDS011;18955;51.224;8.482;2023-04-25T10:32:25;10.80;;;3.13;;
32505;SDS011;18955;51.224;8.482;2023-04-25T10:34:51;15.43;;;2.92;;
32505;SDS011;18955;51.224;8.482;2023-04-25T10:37:17;17.17;;;3.15;;
32505;SDS011;18955;51.224;8.482;2023-04-25T10:39:44;19.98;;;3.00;;
32505;SDS011;18955;51.224;8.482;2023-04-25T10:42:12;17.42;;;2.92;;
32505;SDS011;18955;51.224;8.482;2023-04-25T10:44:38;15.30;;;2.72;;
32505;SDS011;18955;51.224;8.482;2023-04-25T10:49:41;17.85;;;3.50;;
32505;SDS011;18955;51.224;8.482;2023-04-25T10:54:53;13.55;;;2.72;;
32505;SDS011;18955;51.224;8.482;2023-04-25T10:57:40;16.13;;;3.50;;
32505;SDS011;18955;51.224;8.482;2023-04-25T11:10:17;11.65;;;3.33;;
32505;SDS011;18955;51.224;8.482;2023-04-25T11:12:44;10.73;;;3.05;;
32505;SDS011;18955;51.224;8.482;2023-04-25T11:15:12;11.32;;;3.08;;
32505;SDS011;18955;51.224;8.482;2023-04-25T11:17:38;11.93;;;2.90;;
32505;SDS011;18955;51.224;8.482;2023-04-25T11:20:06;14.27;;;2.90;;
32505;SDS011;18955;51.224;8.482;2023-04-25T11:22:37;14.10;;;2.78;;
32505;SDS011;18955;51.224;8.482;2023-04-25T11:25:09;10.18;;;3.08;;
32505;SDS011;18955;51.224;8.482;2023-04-25T11:27:38;11.68;;;3.25;;
32505;SDS011;18955;51.224;8.482;2023-04-25T11:30:15;16.92;;;3.40;;
32505;SDS011;18955;51.224;8.482;2023-04-25T11:32:42;16.73;;;3.40;;
32505;SDS011;18955;51.224;8.482;2023-04-25T11:35:09;12.85;;;3.92;;
32505;SDS011;18955;51.224;8.482;2023-04-25T11:40:02;13.10;;;4.07;;
32505;SDS011;18955;51.224;8.482;2023-04-25T11:42:32;11.60;;;4.38;;
32505;SDS011;18955;51.224;8.482;2023-04-25T11:44:59;9.88;;;3.55;;
32505;SDS011;18955;51.224;8.482;2023-04-25T11:47:31;12.85;;;3.25;;
32505;SDS011;18955;51.224;8.482;2023-04-25T11:49:59;14.20;;;3.72;;
32505;SDS011;18955;51.224;8.482;2023-04-25T11:55:15;11.35;;;3.45;;
32505;SDS011;18955;51.224;8.482;2023-04-25T11:57:42;15.43;;;3.10;;
32505;SDS011;18955;51.224;8.482;2023-04-25T12:00:17;14.18;;;3.22;;
32505;SDS011;18955;51.224;8.482;2023-04-25T12:02:51;7.20;;;2.83;;
32505;SDS011;18955;51.224;8.482;2023-04-25T12:05:19;15.45;;;3.58;;
32505;SDS011;18955;51.224;8.482;2023-04-25T12:07:46;9.50;;;3.30;;
32505;SDS011;18955;51.224;8.482;2023-04-25T12:10:13;13.13;;;3.40;;
32505;SDS011;18955;51.224;8.482;2023-04-25T12:12:41;6.68;;;2.70;;
32505;SDS011;18955;51.224;8.482;2023-04-25T12:15:09;18.90;;;3.50;;
32505;SDS011;18955;51.224;8.482;2023-04-25T12:17:48;14.80;;;3.10;;
32505;SDS011;18955;51.224;8.482;2023-04-25T12:20:17;12.68;;;2.95;;
32505;SDS011;18955;51.224;8.482;2023-04-25T12:22:47;10.82;;;2.63;;
32505;SDS011;18955;51.224;8.482;2023-04-25T12:28:11;6.05;;;2.30;;
32505;SDS011;18955;51.224;8.482;2023-04-25T12:33:31;10.70;;;2.47;;
32505;SDS011;18955;51.224;8.482;2023-04-25T12:36:02;7.80;;;2.35;;
32505;SDS011;18955;51.224;8.482;2023-04-25T12:38:38;8.00;;;2.78;;
32505;SDS011;18955;51.224;8.482;2023-04-25T12:41:06;10.40;;;2.00;;
32505;SDS011;18955;51.224;8.482;2023-04-25T12:43:32;11.32;;;2.83;;
32505;SDS011;18955;51.224;8.482;2023-04-25T12:45:58;9.13;;;2.33;;
32505;SDS011;18955;51.224;8.482;2023-04-25T12:48:25;6.90;;;2.38;;
32505;SDS011;18955;51.224;8.482;2023-04-25T12:50:51;5.43;;;1.65;;
32505;SDS011;18955;51.224;8.482;2023-04-25T12:53:18;13.13;;;2.88;;
32505;SDS011;18955;51.224;8.482;2023-04-25T12:55:46;12.73;;;3.05;;
32505;SDS011;18955;51.224;8.482;2023-04-25T12:58:16;12.77;;;3.33;;
32505;SDS011;18955;51.224;8.482;2023-04-25T13:00:43;12.98;;;3.97;;
32505;SDS011;18955;51.224;8.482;2023-04-25T13:03:10;15.05;;;2.85;;
32505;SDS011;18955;51.224;8.482;2023-04-25T13:05:37;7.30;;;2.90;;
32505;SDS011;18955;51.224;8.482;2023-04-25T13:08:04;7.57;;;2.65;;
32505;SDS011;18955;51.224;8.482;2023-04-25T13:10:30;14.30;;;4.28;;
32505;SDS011;18955;51.224;8.482;2023-04-25T13:12:59;8.18;;;3.30;;
32505;SDS011;18955;51.224;8.482;2023-04-25T13:15:26;12.18;;;3.30;;
32505;SDS011;18955;51.224;8.482;2023-04-25T13:17:53;9.38;;;3.08;;
32505;SDS011;18955;51.224;8.482;2023-04-25T13:20:19;9.20;;;3.50;;
32505;SDS011;18955;51.224;8.482;2023-04-25T13:22:47;10.10;;;3.38;;
32505;SDS011;18955;51.224;8.482;2023-04-25T13:25:14;7.60;;;2.95;;
32505;SDS011;18955;51.224;8.482;2023-04-25T13:30:07;12.73;;;3.35;;
32505;SDS011;18955;51.224;8.482;2023-04-25T13:32:34;11.75;;;3.20;;
32505;SDS011;18955;51.224;8.482;2023-04-25T13:35:09;8.82;;;2.78;;
32505;SDS011;18955;51.224;8.482;2023-04-25T13:37:38;9.20;;;3.40;;
32505;SDS011;18955;51.224;8.482;2023-04-25T13:40:05;8.20;;;2.75;;
32505;SDS011;18955;51.224;8.482;2023-04-25T13:42:34;8.85;;;2.95;;
32505;SDS011;18955;51.224;8.482;2023-04-25T13:45:01;13.60;;;3.20;;
32505;SDS011;18955;51.224;8.482;2023-04-25T13:47:28;9.50;;;2.95;;
32505;SDS011;18955;51.224;8.482;2023-04-25T13:49:55;9.80;;;2.95;;
32505;SDS011;18955;51.224;8.482;2023-04-25T13:52:22;10.20;;;2.88;;
32505;SDS011;18955;51.224;8.482;2023-04-25T13:54:50;10.77;;;2.70;;
32505;SDS011;18955;51.224;8.482;2023-04-25T13:57:17;10.63;;;3.10;;
32505;SDS011;18955;51.224;8.482;2023-04-25T13:59:44;9.57;;;2.90;;
32505;SDS011;18955;51.224;8.482;2023-04-25T14:02:10;9.65;;;2.50;;
32505;SDS011;18955;51.224;8.482;2023-04-25T14:04:36;6.72;;;2.08;;
32505;SDS011;18955;51.224;8.482;2023-04-25T14:07:02;5.72;;;1.83;;
32505;SDS011;18955;51.224;8.482;2023-04-25T14:09:29;9.07;;;2.65;;
32505;SDS011;18955;51.224;8.482;2023-04-25T14:11:55;10.27;;;2.15;;
32505;SDS011;18955;51.224;8.482;2023-04-25T14:14:22;8.10;;;2.00;;
32505;SDS011;18955;51.224;8.482;2023-04-25T14:16:49;7.93;;;2.70;;
32505;SDS011;18955;51.224;8.482;2023-04-25T14:19:17;7.15;;;2.25;;
32505;SDS011;18955;51.224;8.482;2023-04-25T14:24:10;8.15;;;2.00;;
32505;SDS011;18955;51.224;8.482;2023-04-25T14:26:39;6.47;;;2.22;;
32505;SDS011;18955;51.224;8.482;2023-04-25T14:31:37;7.03;;;1.95;;
32505;SDS011;18955;51.224;8.482;2023-04-25T14:34:04;7.15;;;1.95;;
32505;SDS011;18955;51.224;8.482;2023-04-25T14:36:31;3.88;;;1.52;;
32505;SDS011;18955;51.224;8.482;2023-04-25T14:41:24;5.22;;;1.92;;
32505;SDS011;18955;51.224;8.482;2023-04-25T14:43:51;5.55;;;2.08;;
32505;SDS011;18955;51.224;8.482;2023-04-25T14:46:19;7.50;;;2.13;;
32505;SDS011;18955;51.224;8.482;2023-04-25T14:48:46;11.45;;;1.90;;
32505;SDS011;18955;51.224;8.482;2023-04-25T14:51:12;6.65;;;2.00;;
32505;SDS011;18955;51.224;8.482;2023-04-25T14:53:39;7.57;;;1.90;;
32505;SDS011;18955;51.224;8.482;2023-04-25T14:56:06;5.93;;;2.00;;
32505;SDS011;18955;51.224;8.482;2023-04-25T14:58:33;7.75;;;1.80;;
32505;SDS011;18955;51.224;8.482;2023-04-25T15:00:59;8.38;;;2.22;;
32505;SDS011;18955;51.224;8.482;2023-04-25T15:03:27;7.93;;;1.70;;
32505;SDS011;18955;51.224;8.482;2023-04-25T15:05:56;9.75;;;2.03;;
32505;SDS011;18955;51.224;8.482;2023-04-25T15:08:22;7.10;;;1.40;;
32505;SDS011;18955;51.224;8.482;2023-04-25T15:10:48;6.18;;;1.73;;
32505;SDS011;18955;51.224;8.482;2023-04-25T15:13:17;3.20;;;1.85;;
32505;SDS011;18955;51.224;8.482;2023-04-25T15:15:44;6.95;;;1.75;;
32505;SDS011;18955;51.224;8.482;2023-04-25T15:18:17;5.28;;;1.80;;
32505;SDS011;18955;51.224;8.482;2023-04-25T15:20:44;5.45;;;1.50;;
32505;SDS011;18955;51.224;8.482;2023-04-25T15:23:10;4.70;;;1.10;;
32505;SDS011;18955;51.224;8.482;2023-04-25T15:25:36;8.63;;;2.22;;
32505;SDS011;18955;51.224;8.482;2023-04-25T15:28:02;2.75;;;1.00;;
32505;SDS011;18955;51.224;8.482;2023-04-25T15:30:29;4.75;;;1.55;;
32505;SDS011;18955;51.224;8.482;2023-04-25T15:32:55;5.55;;;1.13;;
32505;SDS011;18955;51.224;8.482;2023-04-25T15:35:21;6.05;;;1.73;;
32505;SDS011;18955;51.224;8.482;2023-04-25T15:37:47;3.92;;;1.25;;
32505;SDS011;18955;51.224;8.482;2023-04-25T15:40:16;5.47;;;1.23;;
32505;SDS011;18955;51.224;8.482;2023-04-25T15:42:43;4.60;;;1.40;;
32505;SDS011;18955;51.224;8.482;2023-04-25T15:45:12;5.25;;;1.20;;
32505;SDS011;18955;51.224;8.482;2023-04-25T15:47:42;8.88;;;1.20;;
32505;SDS011;18955;51.224;8.482;2023-04-25T15:50:09;5.30;;;1.60;;
32505;SDS011;18955;51.224;8.482;2023-04-25T15:52:36;4.80;;;1.85;;
32505;SDS011;18955;51.224;8.482;2023-04-25T15:57:31;4.07;;;1.38;;